메인 페이지
METAR-TAF:

METAR-TAF

공항 :

캔자스시티, 미주리, 미국

위도: 39-17-50N, 경도: 094-43-50W, 고도: 312m

현재 날씨관측

예보는 28분 전, 20:53시(UTC)에 발표되었습니다.
북동8kt
온도 15°C
습도 33%
기압 1030 hPa
시정: 16.1km
고도 25000ft 상공 구름 조금

METAR: KMCI 192053Z 05008KT 10SM FEW250 15/M01 A3041 RMK AO2 SLP299 T01501011 58014

시각: 16:21 (21:21 UTC)

예보

예보는 3 시간 45분 전, 17:36시(UTC)에 발표되었습니다.
예보 대상 시간: 19일 18시부터 20일 18시까지 (UTC)
북북동7kt
시정: 10km
고도 4000ft 상공 구름 조금
20일 1500시부터 (UTC)
남동11kt
시정: 10km
맑음

TAF: KMCI 191736Z 1918/2018 03007KT P6SM FEW040 FM201500 13011KT P6SM SKC

4,000개 이상의 공항 관측 자료 및 예보 (METAR 및 TAF 보고).

지도상에서 검색 가능한 기상관측소가 노란 점과 빨간 점으로 표시되어 있습니다.

기상관측소 명을 보려면 표시 위로 마우스를 이동하세요.

날씨 관측과 예보를 보려면 클릭하세요.

지도 변경 : 확대하려면 엑스 표시가 있는 녹색 버튼, 축소하려면 빼기 표시가 있는 녹색 버튼, 다음 페이지의 지도를 보려면 녹색 화살표를 클릭하세요.


METAR-TAF: